Time;durP1;ratioP1;P1;durP2;ratioP2;P2;SDS_P1;SDS_P2;PMS_P1;PMS_P2;Temp;Humidity;BMP_temperature;BMP_pressure;BME280_temperature;BME280_humidity;BME280_pressure;Samples;Min_cycle;Max_cycle;Signal;HPM_P1;HPM_P2
2023/05/01 00:01:09;;;;;;;11.80;6.38;;;;;;;15.32;59.66;98262.53;5035254;28;20041;-93
2023/05/01 00:03:35;;;;;;;20.00;6.15;;;;;;;15.30;59.58;98256.38;5035110;28;20041;-92
2023/05/01 00:06:03;;;;;;;11.10;6.38;;;;;;;15.28;59.43;98248.41;5034305;28;20076;-92
2023/05/01 00:08:30;;;;;;;14.97;6.10;;;;;;;15.43;59.40;98265.47;5035973;28;20037;-94
2023/05/01 00:10:56;;;;;;;10.13;5.53;;;;;;;15.40;59.23;98254.94;5035893;28;20349;-94
2023/05/01 00:13:23;;;;;;;9.85;5.80;;;;;;;15.37;59.50;98260.44;5034663;28;20042;-92
2023/05/01 00:15:50;;;;;;;10.32;5.43;;;;;;;15.31;59.42;98250.94;5035057;28;20049;-93
2023/05/01 00:18:15;;;;;;;10.82;6.10;;;;;;;15.34;59.70;98255.28;5035958;28;20394;-94
2023/05/01 00:20:41;;;;;;;7.82;5.30;;;;;;;15.40;58.81;98263.84;5034186;28;20042;-94
2023/05/01 00:23:07;;;;;;;11.77;5.57;;;;;;;15.26;58.29;98228.03;5035602;28;20137;-95
2023/05/01 00:25:34;;;;;;;10.52;6.45;;;;;;;15.34;58.25;98229.34;5036038;28;20140;-95
2023/05/01 00:28:00;;;;;;;10.80;5.50;;;;;;;15.47;57.95;98250.09;5035489;28;20037;-94
2023/05/01 00:30:26;;;;;;;9.20;5.50;;;;;;;15.46;58.23;98259.06;5033467;28;20076;-94
2023/05/01 00:32:52;;;;;;;8.73;5.90;;;;;;;15.43;58.22;98260.13;5035816;28;20065;-93
2023/05/01 00:35:18;;;;;;;10.65;6.22;;;;;;;15.29;58.26;98231.41;5034443;28;20041;-95
2023/05/01 00:37:44;;;;;;;8.88;5.95;;;;;;;15.32;58.38;98236.59;5034397;28;20037;-93
2023/05/01 00:40:10;;;;;;;7.78;5.05;;;;;;;15.43;58.49;98253.91;5034398;28;20136;-94
2023/05/01 00:42:38;;;;;;;10.63;5.13;;;;;;;15.33;58.43;98240.13;5034120;28;20037;-94
2023/05/01 00:45:05;;;;;;;10.73;5.20;;;;;;;15.44;58.17;98245.78;5033937;28;20057;-94
2023/05/01 00:47:32;;;;;;;8.82;5.30;;;;;;;15.48;57.39;98233.06;5035750;28;20112;-93
2023/05/01 00:49:59;;;;;;;10.90;5.38;;;;;;;15.28;57.99;98220.78;5035395;28;20041;-93
2023/05/01 00:52:25;;;;;;;9.40;5.75;;;;;;;15.42;57.92;98245.00;5036168;28;20041;-93
2023/05/01 00:54:51;;;;;;;8.02;5.05;;;;;;;15.27;57.62;98217.25;5036233;28;20088;-93
2023/05/01 00:57:18;;;;;;;7.80;4.78;;;;;;;15.19;58.15;98214.97;5033342;28;20026;-93
2023/05/01 00:59:45;;;;;;;11.73;5.50;;;;;;;15.13;58.51;98209.94;5035523;28;20060;-94
2023/05/01 01:02:12;;;;;;;12.38;5.40;;;;;;;15.07;58.99;98217.44;5034784;28;20135;-93
2023/05/01 01:04:39;;;;;;;9.85;5.40;;;;;;;15.03;58.59;98216.75;5035933;28;20037;-93
2023/05/01 01:07:10;;;;;;;9.20;5.03;;;;;;;15.13;58.05;98230.50;5034194;28;20037;-93
2023/05/01 01:09:47;;;;;;;8.60;5.22;;;;;;;15.10;58.87;98225.31;5033210;28;20053;-93
2023/05/01 01:12:20;;;;;;;7.75;4.97;;;;;;;15.03;58.67;98224.81;5031170;28;20037;-93
2023/05/01 01:14:54;;;;;;;6.55;4.43;;;;;;;15.07;58.47;98231.72;5034493;28;20487;-93
2023/05/01 01:17:29;;;;;;;8.77;5.10;;;;;;;15.06;59.27;98238.00;5034184;28;20053;-93
2023/05/01 01:20:13;;;;;;;8.00;4.72;;;;;;;14.88;58.44;98210.41;5034718;28;20068;-94
2023/05/01 01:22:42;;;;;;;8.60;4.90;;;;;;;14.87;57.87;98208.66;5033724;28;20037;-93
2023/05/01 01:25:28;;;;;;;8.38;4.95;;;;;;;14.98;57.05;98200.94;5034922;28;20044;-93
2023/05/01 01:28:10;;;;;;;7.68;4.60;;;;;;;15.15;57.19;98231.28;5031440;28;20049;-93
2023/05/01 01:31:03;;;;;;;8.00;4.70;;;;;;;15.09;57.26;98221.75;5031560;28;20051;-93
2023/05/01 01:34:02;;;;;;;8.10;4.80;;;;;;;15.12;57.69;98228.78;5034732;28;20463;-92
2023/05/01 01:36:39;;;;;;;7.85;4.90;;;;;;;15.06;56.78;98213.06;5034945;28;20048;-94
2023/05/01 01:39:12;;;;;;;8.18;4.82;;;;;;;15.16;56.60;98225.88;5034280;28;20137;-93
2023/05/01 01:41:38;;;;;;;8.13;4.75;;;;;;;15.07;57.12;98214.75;5034418;28;20045;-93
2023/05/01 01:44:09;;;;;;;10.75;4.80;;;;;;;15.05;57.51;98225.59;5031302;28;20021;-93
2023/05/01 01:46:38;;;;;;;10.10;4.90;;;;;;;14.94;57.15;98215.44;5033301;28;20041;-94
2023/05/01 01:49:12;;;;;;;8.43;4.93;;;;;;;14.90;57.02;98200.50;5032415;28;20041;-92
2023/05/01 01:51:40;;;;;;;10.60;4.90;;;;;;;15.01;56.76;98221.34;5032250;28;20046;-93
2023/05/01 01:54:10;;;;;;;8.82;5.18;;;;;;;14.89;57.32;98220.16;5032617;28;20091;-93
2023/05/01 01:56:36;;;;;;;;;;;;;;;14.88;57.39;98225.63;5033576;28;20052;-92
2023/05/01 01:59:04;;;;;;;8.48;5.20;;;;;;;14.70;57.18;98209.59;5033565;28;19921;-92
2023/05/01 02:01:30;;;;;;;8.07;5.10;;;;;;;14.75;57.14;98215.56;5033214;28;20045;-94
2023/05/01 02:03:57;;;;;;;11.55;5.43;;;;;;;14.75;57.06;98220.06;5033812;28;20040;-94
2023/05/01 02:06:25;;;;;;;15.50;5.60;;;;;;;14.77;56.82;98226.19;5034247;28;20046;-93
2023/05/01 02:08:52;;;;;;;7.10;4.50;;;;;;;14.77;56.89;98218.16;5033774;28;20065;-93
2023/05/01 02:11:21;;;;;;;7.03;4.32;;;;;;;14.72;56.44;98215.69;5033720;28;20045;-93
2023/05/01 02:13:48;;;;;;;6.43;4.70;;;;;;;14.69;57.20;98215.00;5033834;28;20123;-94
2023/05/01 02:16:15;;;;;;;12.63;5.43;;;;;;;14.71;56.73;98219.34;5033603;28;20132;-93
2023/05/01 02:18:42;;;;;;;9.27;4.68;;;;;;;14.52;56.72;98191.78;5038320;28;20045;-94
2023/05/01 02:21:10;;;;;;;7.50;4.50;;;;;;;14.75;55.99;98214.69;5038534;28;20037;-94
2023/05/01 02:23:38;;;;;;;5.82;4.18;;;;;;;14.76;55.70;98221.75;5038098;28;20048;-94
2023/05/01 02:26:05;;;;;;;9.27;4.88;;;;;;;14.86;55.44;98230.19;5037894;28;20044;-92
2023/05/01 02:28:34;;;;;;;6.53;4.03;;;;;;;14.55;56.43;98191.63;5038091;28;20120;-93
2023/05/01 02:31:00;;;;;;;7.67;4.73;;;;;;;14.65;57.17;98225.00;5037558;28;20037;-92
2023/05/01 02:33:26;;;;;;;8.10;4.47;;;;;;;14.79;55.97;98213.59;5038114;28;20566;-94
2023/05/01 02:35:52;;;;;;;8.95;4.10;;;;;;;14.78;55.33;98203.81;5037195;28;20064;-92
2023/05/01 02:38:18;;;;;;;6.15;4.25;;;;;;;14.80;55.58;98207.28;5036854;28;20110;-93
2023/05/01 02:40:49;;;;;;;9.93;4.18;;;;;;;14.68;55.81;98189.19;5036003;28;20483;-94
2023/05/01 02:43:18;;;;;;;9.10;4.53;;;;;;;14.81;56.14;98206.31;5037447;28;20037;-92
2023/05/01 02:45:46;;;;;;;9.40;4.30;;;;;;;14.76;55.59;98195.84;5037383;28;20053;-94
2023/05/01 02:48:16;;;;;;;9.02;4.15;;;;;;;14.85;55.26;98189.16;5037499;28;20049;-94
2023/05/01 02:50:43;;;;;;;5.95;4.40;;;;;;;14.89;55.28;98196.06;5037685;28;20037;-93
2023/05/01 02:53:11;;;;;;;8.10;4.20;;;;;;;14.90;55.60;98203.16;5037390;28;20037;-93
2023/05/01 02:55:37;;;;;;;6.45;4.40;;;;;;;14.81;55.82;98184.03;5037651;28;20038;-94
2023/05/01 02:58:05;;;;;;;9.75;4.60;;;;;;;14.84;55.80;98189.25;5037396;28;20128;-93
2023/05/01 03:00:31;;;;;;;12.75;4.57;;;;;;;14.74;56.72;98178.16;5036196;28;20037;-94
2023/05/01 03:02:57;;;;;;;7.47;4.47;;;;;;;14.71;56.80;98181.00;5037332;28;20434;-93
2023/05/01 03:05:23;;;;;;;8.15;4.60;;;;;;;14.65;57.29;98182.19;5037070;28;20087;-94
2023/05/01 03:07:50;;;;;;;7.00;4.50;;;;;;;14.42;57.27;98153.97;5037352;28;20037;-94
2023/05/01 03:10:15;;;;;;;7.00;4.13;;;;;;;14.51;57.56;98185.56;5036565;28;20038;-93
2023/05/01 03:12:41;;;;;;;8.02;4.50;;;;;;;14.36;57.54;98159.63;5037059;28;20033;-93
2023/05/01 03:15:11;;;;;;;8.75;4.15;;;;;;;14.33;57.82;98165.13;5038435;28;20037;-92
2023/05/01 03:17:37;;;;;;;9.07;4.60;;;;;;;14.45;57.63;98185.88;5043531;28;20038;-93
2023/05/01 03:20:08;;;;;;;7.68;4.10;;;;;;;14.43;57.95;98185.09;5047599;28;20140;-94
2023/05/01 03:22:34;;;;;;;7.53;4.15;;;;;;;14.21;58.26;98149.72;5039588;28;20086;-93
2023/05/01 03:25:00;;;;;;;6.45;4.30;;;;;;;14.43;57.87;98182.44;5047304;28;20049;-93
2023/05/01 03:27:26;;;;;;;6.25;4.20;;;;;;;14.44;58.17;98184.13;5047698;28;20037;-93
2023/05/01 03:29:52;;;;;;;6.45;4.50;;;;;;;14.25;58.31;98168.22;5042250;28;20094;-94
2023/05/01 03:32:19;;;;;;;7.30;4.13;;;;;;;14.29;57.94;98161.75;5044341;28;20060;-93
2023/05/01 03:34:45;;;;;;;7.43;4.35;;;;;;;14.22;58.50;98157.66;5047081;28;20041;-92
2023/05/01 03:37:11;;;;;;;9.55;4.55;;;;;;;14.31;58.55;98172.34;5047588;28;20044;-93
2023/05/01 03:39:37;;;;;;;7.97;4.28;;;;;;;14.14;58.44;98142.03;5047303;28;20037;-93
2023/05/01 03:42:04;;;;;;;8.10;4.40;;;;;;;14.25;58.41;98151.28;5041325;28;20049;-94
2023/05/01 03:44:29;;;;;;;6.28;4.30;;;;;;;14.30;58.16;98166.16;5044806;28;20037;-92
2023/05/01 03:46:55;;;;;;;5.88;3.80;;;;;;;14.25;58.26;98160.19;5046024;28;20041;-92
2023/05/01 03:49:23;;;;;;;7.90;3.78;;;;;;;14.05;58.88;98139.81;5044741;28;20094;-94
2023/05/01 03:51:49;;;;;;;7.13;4.47;;;;;;;14.38;58.38;98176.47;5045211;28;20067;-94
2023/05/01 03:54:15;;;;;;;5.85;4.45;;;;;;;14.32;58.13;98169.59;5046512;28;20040;-93
2023/05/01 03:56:40;;;;;;;7.05;4.28;;;;;;;14.38;58.00;98163.94;5046437;28;20045;-93
2023/05/01 03:59:06;;;;;;;7.20;4.68;;;;;;;14.25;58.00;98154.84;5044145;28;20040;-94
2023/05/01 04:01:32;;;;;;;7.88;4.38;;;;;;;14.34;58.31;98150.81;5046469;28;20064;-93
2023/05/01 04:03:58;;;;;;;10.07;4.45;;;;;;;14.45;57.79;98169.84;5042781;28;20041;-94
2023/05/01 04:06:25;;;;;;;5.93;4.32;;;;;;;14.34;57.54;98145.47;5044306;28;20049;-94
2023/05/01 04:08:51;;;;;;;7.32;4.57;;;;;;;14.43;58.05;98161.03;5044932;28;20375;-94
2023/05/01 04:11:17;;;;;;;8.13;4.15;;;;;;;14.32;57.94;98147.34;5045250;28;20044;-94
2023/05/01 04:13:43;;;;;;;7.13;4.03;;;;;;;14.53;57.81;98183.69;5040683;28;20102;-94
2023/05/01 04:16:09;;;;;;;14.68;4.65;;;;;;;14.51;57.79;98161.50;5045025;28;20088;-95
2023/05/01 04:18:34;;;;;;;6.22;4.13;;;;;;;14.61;57.62;98164.56;5040336;28;20047;-95
2023/05/01 04:21:00;;;;;;;8.05;4.05;;;;;;;14.57;56.95;98145.16;5040419;28;20049;-94
2023/05/01 04:23:28;;;;;;;7.88;4.13;;;;;;;14.70;57.09;98161.41;5045262;28;20045;-92
2023/05/01 04:25:53;;;;;;;6.63;4.38;;;;;;;14.65;58.01;98159.94;5044930;28;20072;-95
2023/05/01 04:28:19;;;;;;;8.73;4.30;;;;;;;14.76;57.18;98173.59;5047988;28;20127;-93
2023/05/01 04:30:45;;;;;;;7.82;4.50;;;;;;;14.78;56.89;98171.69;5041748;28;20047;-94
2023/05/01 04:33:11;;;;;;;7.70;4.40;;;;;;;14.77;57.09;98169.97;5048716;28;20044;-90
2023/05/01 04:35:38;;;;;;;8.23;4.32;;;;;;;14.56;57.65;98131.84;5038421;28;20040;-94
2023/05/01 04:38:03;;;;;;;7.45;4.40;;;;;;;14.79;56.54;98160.06;5046589;28;20147;-94
2023/05/01 04:40:31;;;;;;;7.82;4.30;;;;;;;14.85;56.22;98159.69;5045505;28;20057;-94
2023/05/01 04:42:57;;;;;;;6.18;4.43;;;;;;;14.87;56.59;98160.47;5050221;28;20048;-92
2023/05/01 04:45:22;;;;;;;6.18;4.53;;;;;;;14.90;56.50;98164.84;5043431;28;20041;-94
2023/05/01 04:47:48;;;;;;;7.72;4.70;;;;;;;14.70;56.32;98140.00;5039632;28;20095;-96
2023/05/01 04:50:14;;;;;;;7.63;4.47;;;;;;;14.93;56.36;98162.84;5046339;28;20095;-92
2023/05/01 04:52:40;;;;;;;7.95;4.60;;;;;;;14.91;56.38;98156.69;5043149;28;20045;-93
2023/05/01 04:55:08;;;;;;;6.75;4.20;;;;;;;14.96;56.40;98168.03;5041587;28;20095;-92
2023/05/01 04:57:35;;;;;;;8.43;4.82;;;;;;;14.81;56.32;98139.41;5043256;28;20140;-94
2023/05/01 05:00:02;;;;;;;6.65;4.60;;;;;;;14.97;56.52;98167.06;5042837;28;20059;-94
2023/05/01 05:02:28;;;;;;;7.65;4.60;;;;;;;14.84;55.92;98144.59;5046188;28;20137;-94
2023/05/01 05:04:55;;;;;;;8.00;5.10;;;;;;;15.04;55.78;98181.00;5044232;28;20462;-94
2023/05/01 05:07:20;;;;;;;9.13;4.60;;;;;;;15.00;56.59;98166.03;5046865;28;20064;-94
2023/05/01 05:09:46;;;;;;;7.47;4.45;;;;;;;14.99;56.55;98173.22;5040431;28;20045;-94
2023/05/01 05:12:13;;;;;;;8.52;4.45;;;;;;;15.06;55.72;98176.41;5046358;28;20037;-95
2023/05/01 05:14:41;;;;;;;7.75;4.80;;;;;;;15.15;55.87;98188.44;5044299;28;20048;-93
2023/05/01 05:17:07;;;;;;;8.95;4.80;;;;;;;15.25;55.92;98189.66;5039880;28;20057;-94
2023/05/01 05:19:33;;;;;;;6.60;4.72;;;;;;;15.14;54.95;98155.44;5038686;28;20128;-94
2023/05/01 05:22:01;;;;;;;6.93;4.45;;;;;;;15.41;55.18;98179.81;5045197;28;20041;-93
2023/05/01 05:24:27;;;;;;;6.90;4.38;;;;;;;15.42;54.59;98172.66;5038938;28;20066;-94
2023/05/01 05:26:53;;;;;;;9.65;4.70;;;;;;;15.53;54.38;98170.22;5046301;28;20056;-94
2023/05/01 05:29:19;;;;;;;7.25;4.20;;;;;;;15.71;53.74;98176.38;5038411;28;20048;-94
2023/05/01 05:31:48;;;;;;;8.93;5.15;;;;;;;15.89;53.83;98176.28;5024515;28;20135;-93
2023/05/01 05:34:13;;;;;;;7.82;4.38;;;;;;;16.10;53.78;98201.84;5054971;28;20049;-93
2023/05/01 05:36:39;;;;;;;7.47;5.07;;;;;;;15.84;54.08;98173.88;5050009;28;20060;-93
2023/05/01 05:39:05;;;;;;;7.95;4.70;;;;;;;15.98;53.95;98184.66;5048125;28;20037;-95
2023/05/01 05:41:31;;;;;;;8.15;4.95;;;;;;;15.91;54.41;98193.13;5038523;28;20045;-93
2023/05/01 05:43:57;;;;;;;8.80;4.68;;;;;;;16.01;54.22;98195.19;5038176;28;20405;-92
2023/05/01 05:46:23;;;;;;;6.28;4.53;;;;;;;15.94;54.37;98201.00;5038307;28;20056;-93
2023/05/01 05:48:50;;;;;;;7.68;4.68;;;;;;;15.67;54.71;98153.34;5052905;28;20047;-93
2023/05/01 05:51:16;;;;;;;8.63;4.85;;;;;;;15.88;54.59;98188.81;5044789;28;20036;-92
2023/05/01 05:53:42;;;;;;;7.25;4.68;;;;;;;15.85;55.00;98180.06;5038618;28;20064;-91
2023/05/01 05:56:08;;;;;;;7.85;4.72;;;;;;;15.96;53.97;98201.75;5043764;28;20394;-96
2023/05/01 05:58:34;;;;;;;7.07;4.57;;;;;;;15.78;54.15;98161.66;5043817;28;20139;-95
2023/05/01 06:00:59;;;;;;;7.00;4.80;;;;;;;15.94;55.06;98179.53;5044400;28;20060;-93
2023/05/01 06:03:26;;;;;;;7.32;4.43;;;;;;;15.96;54.97;98173.16;5042661;28;20045;-94
2023/05/01 06:05:53;;;;;;;8.95;4.93;;;;;;;16.17;54.56;98188.94;5038998;28;20139;-95
2023/05/01 06:08:19;;;;;;;7.65;5.00;;;;;;;16.38;53.81;98190.34;5041466;28;20041;-94
2023/05/01 06:10:45;;;;;;;6.32;4.47;;;;;;;16.37;54.00;98145.69;5043391;28;20049;-94
2023/05/01 06:13:12;;;;;;;7.38;4.28;;;;;;;16.98;52.51;98191.19;5053624;28;20052;-94
2023/05/01 06:15:38;;;;;;;7.63;4.85;;;;;;;16.71;53.02;98177.66;5047510;28;20049;-94
2023/05/01 06:18:04;;;;;;;7.28;4.68;;;;;;;16.56;54.21;98156.13;5045753;28;20512;-94
2023/05/01 06:20:30;;;;;;;7.68;4.72;;;;;;;16.71;53.21;98156.16;5039078;28;20049;-93
2023/05/01 06:22:58;;;;;;;6.18;4.70;;;;;;;17.03;52.76;98151.50;5049052;28;20044;-94
2023/05/01 06:25:24;;;;;;;7.43;4.70;;;;;;;17.01;53.90;98177.59;5040504;28;20049;-93
2023/05/01 06:27:50;;;;;;;9.13;5.07;;;;;;;16.81;54.10;98186.91;5050576;28;20117;-94
2023/05/01 06:30:18;;;;;;;9.27;4.45;;;;;;;16.85;54.22;98161.59;5042101;28;20470;-95
2023/05/01 06:32:44;;;;;;;10.60;4.70;;;;;;;17.17;53.29;98155.97;5037648;28;20099;-95
2023/05/01 06:35:10;;;;;;;8.30;4.30;;;;;;;17.40;52.93;98160.75;5036386;28;20278;-94
2023/05/01 06:37:37;;;;;;;7.57;4.50;;;;;;;17.59;52.33;98154.19;5037621;28;20049;-94
2023/05/01 06:40:06;;;;;;;6.25;3.85;;;;;;;18.15;51.21;98179.19;5041722;28;20518;-94
2023/05/01 06:42:32;;;;;;;7.20;4.43;;;;;;;18.27;50.85;98170.25;5045313;28;20491;-94
2023/05/01 06:44:58;;;;;;;7.88;4.60;;;;;;;18.72;50.78;98183.34;5039403;28;20052;-94
2023/05/01 06:47:24;;;;;;;8.05;4.18;;;;;;;18.84;49.31;98169.03;5041897;28;20057;-95
2023/05/01 06:49:49;;;;;;;7.07;4.60;;;;;;;18.82;49.59;98162.03;5041768;28;20390;-94
2023/05/01 06:52:15;;;;;;;6.97;4.35;;;;;;;18.61;50.96;98175.16;5050542;28;20067;-94
2023/05/01 06:54:41;;;;;;;6.47;3.80;;;;;;;18.50;48.33;98169.63;5039366;28;20047;-95
2023/05/01 06:57:08;;;;;;;7.00;4.43;;;;;;;18.55;48.37;98189.91;5042859;28;20037;-94
2023/05/01 06:59:34;;;;;;;6.47;4.10;;;;;;;18.77;47.44;98177.66;5049451;28;20525;-94
2023/05/01 07:02:01;;;;;;;5.35;4.13;;;;;;;18.60;47.87;98190.44;5046219;28;20037;-94
2023/05/01 07:04:27;;;;;;;5.63;3.92;;;;;;;19.19;46.20;98189.97;5046763;28;20094;-95
2023/05/01 07:06:52;;;;;;;7.35;4.30;;;;;;;19.09;45.66;98170.88;5044388;28;20025;-93
2023/05/01 07:09:18;;;;;;;8.57;3.80;;;;;;;19.28;45.59;98156.94;5057609;28;20040;-94
2023/05/01 07:11:44;;;;;;;6.22;3.70;;;;;;;19.60;44.91;98190.59;5043498;28;20128;-94
2023/05/01 07:14:12;;;;;;;6.25;3.65;;;;;;;19.74;44.04;98163.53;5042471;28;20045;-94
2023/05/01 07:16:37;;;;;;;5.68;4.05;;;;;;;19.24;45.24;98158.13;5041178;28;20060;-95
2023/05/01 07:19:03;;;;;;;5.53;3.92;;;;;;;19.42;43.83;98146.97;5042078;28;20041;-95
2023/05/01 07:21:31;;;;;;;5.80;3.70;;;;;;;20.01;44.59;98168.66;5049277;28;20067;-93
2023/05/01 07:23:57;;;;;;;5.35;3.97;;;;;;;19.93;44.56;98151.34;5060357;28;20067;-95
2023/05/01 07:26:25;;;;;;;6.45;4.18;;;;;;;19.65;44.93;98156.09;5060054;28;20143;-95
2023/05/01 07:28:51;;;;;;;8.52;4.00;;;;;;;19.40;46.53;98159.72;5062132;28;20055;-95
2023/05/01 07:31:18;;;;;;;7.45;3.67;;;;;;;19.42;44.76;98150.53;5059834;28;20520;-95
2023/05/01 07:33:44;;;;;;;7.28;3.92;;;;;;;18.99;46.72;98148.25;5060989;28;20045;-96
2023/05/01 07:36:10;;;;;;;5.38;3.95;;;;;;;19.00;46.64;98157.22;5061069;28;20051;-96
2023/05/01 07:38:36;;;;;;;6.95;3.88;;;;;;;19.24;45.94;98154.56;5059306;28;20041;-95
2023/05/01 07:41:02;;;;;;;5.30;4.20;;;;;;;19.46;46.31;98173.59;5059649;28;20052;-95
2023/05/01 07:43:28;;;;;;;7.53;4.25;;;;;;;19.23;46.80;98166.31;5060751;28;20044;-95
2023/05/01 07:45:56;;;;;;;7.32;4.40;;;;;;;18.88;47.00;98154.38;5047599;28;20066;-94
2023/05/01 07:48:24;;;;;;;5.50;3.88;;;;;;;18.99;47.15;98150.94;5059248;28;20045;-95
2023/05/01 07:50:50;;;;;;;7.10;4.17;;;;;;;19.20;47.05;98151.22;5056666;28;20041;-96
2023/05/01 07:53:16;;;;;;;7.03;4.30;;;;;;;19.43;46.83;98154.97;5049288;28;20110;-95
2023/05/01 07:55:41;;;;;;;5.47;4.35;;;;;;;19.84;46.45;98179.88;5041499;28;20037;-96
2023/05/01 07:58:07;;;;;;;6.50;4.32;;;;;;;19.98;47.13;98160.81;5041051;28;20037;-95
2023/05/01 08:00:34;;;;;;;6.45;4.65;;;;;;;20.05;46.01;98180.97;5045187;28;20132;-95
2023/05/01 08:03:00;;;;;;;6.35;3.92;;;;;;;19.89;45.05;98158.81;5044628;28;20368;-95
2023/05/01 08:05:28;;;;;;;6.25;4.18;;;;;;;19.93;45.51;98172.91;5048140;28;20067;-95
2023/05/01 08:07:54;;;;;;;6.05;4.10;;;;;;;19.45;45.91;98150.31;5042423;28;20033;-94
2023/05/01 08:10:20;;;;;;;6.50;4.22;;;;;;;19.86;46.08;98153.63;5053820;28;20075;-95
2023/05/01 08:12:46;;;;;;;6.22;4.15;;;;;;;20.19;45.70;98163.75;5052809;28;20041;-95
2023/05/01 08:15:12;;;;;;;6.97;4.22;;;;;;;20.45;45.85;98167.13;5045066;28;20076;-94
2023/05/01 08:17:37;;;;;;;6.28;4.05;;;;;;;20.63;44.91;98172.97;5041365;28;20436;-95
2023/05/01 08:20:04;;;;;;;6.00;4.00;;;;;;;20.57;44.51;98137.44;5038796;28;20042;-95
2023/05/01 08:22:32;;;;;;;8.02;4.38;;;;;;;20.68;44.75;98159.09;5043852;28;20055;-95
2023/05/01 08:24:57;;;;;;;5.97;4.50;;;;;;;20.56;45.66;98142.00;5039118;28;20044;-95
2023/05/01 08:27:23;;;;;;;8.68;4.78;;;;;;;20.39;46.28;98172.16;5052713;28;20049;-93
2023/05/01 08:29:49;;;;;;;8.15;4.80;;;;;;;20.63;45.73;98156.78;5042658;28;20063;-95
2023/05/01 08:32:17;;;;;;;7.47;5.00;;;;;;;20.58;45.11;98158.09;5043233;28;20091;-94
2023/05/01 08:34:42;;;;;;;9.00;4.80;;;;;;;20.15;46.65;98148.75;5047186;28;20068;-92
2023/05/01 08:37:08;;;;;;;8.05;4.82;;;;;;;20.57;45.96;98154.53;5044164;28;20068;-94
2023/05/01 08:39:36;;;;;;;6.57;4.45;;;;;;;20.56;45.00;98143.81;5042251;28;20049;-95
2023/05/01 08:42:02;;;;;;;6.82;4.50;;;;;;;20.77;46.88;98163.78;5046324;28;20553;-94
2023/05/01 08:44:30;;;;;;;7.80;4.82;;;;;;;20.89;45.46;98191.72;5044880;28;20051;-94
2023/05/01 08:47:06;;;;;;;7.33;4.80;;;;;;;20.81;46.15;98159.00;5040024;28;20045;-94
2023/05/01 08:49:35;;;;;;;6.90;4.65;;;;;;;20.87;45.56;98175.59;5040541;28;20067;-94
2023/05/01 08:52:03;;;;;;;6.10;4.38;;;;;;;20.47;46.41;98157.09;5050436;28;20086;-93
2023/05/01 08:54:31;;;;;;;9.05;4.93;;;;;;;20.39;47.98;98178.41;5028752;28;20046;-93
2023/05/01 08:57:02;;;;;;;9.45;4.53;;;;;;;20.41;46.49;98156.69;5042231;28;20032;-93
2023/05/01 08:59:30;;;;;;;7.15;4.65;;;;;;;20.62;46.69;98159.59;5037971;28;20051;-93
2023/05/01 09:02:00;;;;;;;6.60;4.70;;;;;;;20.66;45.65;98161.06;5045867;28;20040;-94
2023/05/01 09:04:31;;;;;;;9.73;4.90;;;;;;;20.84;46.57;98169.56;5046622;28;20049;-93
2023/05/01 09:06:59;;;;;;;7.68;4.65;;;;;;;20.84;46.41;98153.34;5041116;28;20034;-94
2023/05/01 09:09:25;;;;;;;7.20;4.70;;;;;;;21.18;46.80;98178.56;5042626;28;20241;-94
2023/05/01 09:11:55;;;;;;;6.25;4.57;;;;;;;20.78;45.44;98152.00;5043447;28;20025;-94
2023/05/01 09:14:23;;;;;;;6.55;4.13;;;;;;;21.11;45.36;98178.19;5040792;28;20486;-93
2023/05/01 09:16:49;;;;;;;6.93;4.20;;;;;;;20.89;45.54;98187.16;5041672;28;20050;-93
2023/05/01 09:19:16;;;;;;;9.05;4.45;;;;;;;21.02;45.96;98178.94;5047052;28;20061;-94
2023/05/01 09:21:42;;;;;;;6.07;4.13;;;;;;;20.94;46.15;98184.09;5040339;28;20099;-94
2023/05/01 09:24:08;;;;;;;8.52;4.38;;;;;;;20.60;45.96;98169.66;5041635;28;20429;-93
2023/05/01 09:26:37;;;;;;;6.68;4.40;;;;;;;20.40;47.30;98161.22;5044627;28;20037;-94
2023/05/01 09:29:04;;;;;;;6.53;4.40;;;;;;;20.35;46.88;98141.81;5037942;28;20053;-91
2023/05/01 09:31:32;;;;;;;5.38;4.05;;;;;;;20.45;47.51;98171.66;5039188;28;20075;-92
2023/05/01 09:33:59;;;;;;;7.57;4.60;;;;;;;20.55;47.17;98172.69;5043369;28;20041;-93
2023/05/01 09:36:26;;;;;;;7.53;4.30;;;;;;;20.72;47.67;98149.78;5042222;28;20394;-94
2023/05/01 09:38:53;;;;;;;8.38;4.45;;;;;;;21.10;46.39;98149.47;5042435;28;20383;-94
2023/05/01 09:41:20;;;;;;;9.27;4.47;;;;;;;21.20;46.85;98194.69;5041212;28;20526;-93
2023/05/01 09:43:50;;;;;;;7.00;4.63;;;;;;;21.09;46.92;98184.72;5038156;28;20123;-92
2023/05/01 09:46:16;;;;;;;8.18;4.60;;;;;;;20.62;46.63;98156.88;5040321;28;20037;-93
2023/05/01 09:49:01;;;;;;;7.15;4.65;;;;;;;20.97;47.13;98169.47;5039701;28;20075;-92
2023/05/01 09:51:29;;;;;;;7.35;4.97;;;;;;;20.49;48.42;98178.56;5039423;28;20033;-94
2023/05/01 09:53:56;;;;;;;7.22;4.63;;;;;;;20.69;48.80;98177.91;5038058;28;20124;-94
2023/05/01 09:56:23;;;;;;;6.80;4.70;;;;;;;20.76;47.98;98159.38;5035165;28;20049;-93
2023/05/01 09:58:53;;;;;;;7.72;5.00;;;;;;;20.80;47.73;98173.53;5043865;28;20041;-93
2023/05/01 10:01:36;;;;;;;7.07;4.90;;;;;;;20.77;48.96;98184.56;5038875;28;20498;-94
2023/05/01 10:04:04;;;;;;;7.95;4.93;;;;;;;20.69;48.60;98182.47;5036592;28;20110;-96
2023/05/01 10:06:31;;;;;;;9.00;5.28;;;;;;;20.47;49.92;98189.50;5044069;28;20110;-94
2023/05/01 10:08:57;;;;;;;8.10;5.45;;;;;;;20.07;50.59;98149.31;5043957;28;20079;-95
2023/05/01 10:11:25;;;;;;;7.95;5.28;;;;;;;20.06;52.26;98173.72;5044544;28;20136;-94
2023/05/01 10:14:05;;;;;;;8.70;5.18;;;;;;;20.22;51.31;98190.50;5030563;28;20112;-95
2023/05/01 10:16:33;;;;;;;8.80;5.13;;;;;;;20.24;50.76;98184.97;5033683;28;20498;-94
2023/05/01 10:19:00;;;;;;;10.57;6.07;;;;;;;20.20;51.31;98178.09;5038212;28;20041;-93
2023/05/01 10:21:28;;;;;;;8.57;5.20;;;;;;;19.96;52.35;98191.59;5046462;28;20494;-93
2023/05/01 10:23:54;;;;;;;8.13;5.43;;;;;;;19.95;52.75;98192.56;5069934;22;20108;-91
2023/05/01 10:26:20;;;;;;;8.18;5.30;;;;;;;19.50;53.88;98207.47;4996886;28;20053;-92
2023/05/01 10:28:48;;;;;;;7.65;5.07;;;;;;;19.37;53.88;98176.13;4999025;28;20142;-92
2023/05/01 10:31:15;;;;;;;9.48;4.80;;;;;;;19.73;52.77;98187.91;4997540;28;20205;-91
2023/05/01 10:33:45;;;;;;;7.95;5.00;;;;;;;19.54;52.79;98177.56;5002400;28;20038;-92
2023/05/01 10:36:21;;;;;;;7.32;5.45;;;;;;;19.10;55.10;98182.50;4994177;28;20042;-90
2023/05/01 10:38:50;;;;;;;9.48;5.10;;;;;;;19.57;53.78;98204.31;5005439;28;20114;-93
2023/05/01 10:41:16;;;;;;;7.70;5.00;;;;;;;19.44;53.97;98207.91;5008358;28;20041;-94
2023/05/01 10:43:42;;;;;;;10.90;5.53;;;;;;;19.15;54.55;98171.38;5005029;28;20045;-95
2023/05/01 10:46:26;;;;;;;8.55;5.57;;;;;;;19.43;55.05;98208.91;5000761;28;20484;-94
2023/05/01 10:48:56;;;;;;;10.13;5.15;;;;;;;19.37;54.63;98181.50;5002723;28;20050;-93
2023/05/01 10:51:23;;;;;;;8.13;5.10;;;;;;;19.15;55.58;98191.13;5002215;28;20056;-93
2023/05/01 10:54:26;;;;;;;8.38;4.80;;;;;;;19.40;55.42;98198.31;5005827;28;20046;-94
2023/05/01 10:56:53;;;;;;;8.13;5.63;;;;;;;19.47;56.12;98199.63;5003773;28;20123;-94
2023/05/01 10:59:19;;;;;;;9.05;5.40;;;;;;;19.37;56.38;98174.28;5010140;28;20547;-94
2023/05/01 11:01:47;;;;;;;10.13;5.60;;;;;;;19.03;57.91;98200.94;5002642;28;20510;-95
2023/05/01 11:04:48;;;;;;;9.10;6.00;;;;;;;19.27;57.87;98211.81;4998827;28;20050;-94
2023/05/01 11:07:16;;;;;;;10.35;5.97;;;;;;;19.28;59.60;98185.75;4998467;28;20041;-95
2023/05/01 11:09:45;;;;;;;10.02;6.68;;;;;;;19.21;59.04;98187.13;5001843;28;20046;-95
2023/05/01 11:12:12;;;;;;;6.95;4.65;;;;;;;18.65;60.20;98185.63;5012505;28;20037;-94
2023/05/01 11:15:02;;;;;;;9.10;5.78;;;;;;;19.35;61.29;98200.50;4992224;28;20090;-95
2023/05/01 11:17:45;;;;;;;9.15;5.20;;;;;;;19.60;57.89;98177.97;4998396;28;20037;-93
2023/05/01 11:20:12;;;;;;;8.32;5.70;;;;;;;19.62;58.35;98185.97;4990256;28;20129;-96
2023/05/01 11:22:43;;;;;;;9.15;5.60;;;;;;;19.38;57.54;98161.66;5007099;28;20053;-95
2023/05/01 11:25:19;;;;;;;7.82;5.22;;;;;;;20.09;56.03;98179.75;5016276;28;20064;-95
2023/05/01 11:27:47;;;;;;;6.95;4.90;;;;;;;20.18;54.32;98180.91;5025226;28;20084;-93
2023/05/01 11:30:13;;;;;;;7.45;4.60;;;;;;;20.02;55.78;98151.53;5024404;28;20060;-94
2023/05/01 11:32:42;;;;;;;9.75;5.70;;;;;;;20.40;54.51;98142.31;5019025;28;20434;-94
2023/05/01 11:35:17;;;;;;;7.75;5.20;;;;;;;20.75;51.92;98148.69;5020910;28;20039;-93